Texas General Land Office
 Texas General Land Office
 George P. Bush, Commissioner

 Oil Spill Prevention
 & Response

Texas Automated Buoy System
Real Time Ocean Observations
Supporting Oil Spill Prevention and
Response since 1995
Geochemical and Environmental Research Group

NOAA - NDBC Buoy 42020 -- Texas Automated Buoy System

NBDC Buoy 42020
Corpus Christi, TX
Conditions at 09/23/2018 17:20 UTC (09/23/2018 12:20 CDT)
26° 57.0000'N   96° 42.0000'W
50nm Southeast of Corpus Christi, TX
Anemometer height: 5m
Water Depth: 252 feet (77 meters)
Wind: 3.0 m/s (5.8 kts)
          From 320°T (NW)
Wind Gust: 5.00 m/s (9.7 kts) Pressure: 1014.1 mb (29.95 inHg)
Air Temp: 27°C (81 °F) Dewpoint: 22°C (72°F) Relative Humidity: 75%
Sea Surf Temp: 29 °C (85 °F) Wave Height: -99.0m (-324.8 ft) Wave Period: -99
  


IMPORTANT: Notice to Mariners


   Date      Time    Speed     Dir   Gust    AtmPr   AirT   DewPt   WaterT  RelH  WvHt  WvPer
          |  (UTC) | (m/s) |  (°T) | (m/s) |  (mb) |  (°C) |  (°C) |  (°C) | (%) | (m) | (s) |
==========+========+=======+=======+=======+=======+=======+=======+=======+=====+=====+=====+
09/23/2018 00:00:00     4.0     160     5.0 1011.70    29.0    25.4    29.8    81 -99.0  -99
09/23/2018 00:10:00     3.0     170     4.0 1011.60    29.0    25.4    29.7    81 -99.0  -99
09/23/2018 00:20:00     2.0     160     3.0 1011.30    29.0    25.4    29.7    81 -99.0  -99
09/23/2018 00:30:00     3.0     150     4.0 1011.30    29.1    25.7    29.7    81 -99.0  -99
09/23/2018 00:40:00     3.0     170     5.0 1011.10    29.1    26.0    29.7    83   1.0  -99
09/23/2018 00:50:00     5.0     180     7.0 1011.30    28.8    26.4    29.7    86   1.0    6
09/23/2018 01:00:00     6.0     190     7.0 1011.90    28.2    26.3    29.7    89 -99.0  -99
09/23/2018 01:10:00     4.0     180     6.0 1011.80    28.2    26.3    29.7    89 -99.0  -99
09/23/2018 01:20:00     4.0     180     6.0 1011.70    28.4    25.3    29.7    83 -99.0  -99
09/23/2018 01:30:00     4.0     170     5.0 1011.60    29.0    24.8    29.7    78 -99.0  -99
09/23/2018 01:40:00     4.0     180     7.0 1011.90    29.0    25.3    29.7    80   1.0  -99
09/23/2018 01:50:00     5.0     190     7.0 1012.20    28.3    25.5    29.7    84   1.0    6
09/23/2018 02:00:00     5.0     200     6.0 1012.30    28.2    25.6    29.7    85 -99.0  -99
09/23/2018 02:10:00     4.0     200     4.0 1012.40    28.2    25.6    29.7    85 -99.0  -99
09/23/2018 02:20:00     4.0     200     5.0 1012.30    28.3    25.0    29.7    82 -99.0  -99
09/23/2018 02:30:00     4.0     210     5.0 1012.40    29.1    22.9    29.6    69 -99.0  -99
09/23/2018 02:40:00     4.0     210     6.0 1012.70    29.2    24.2    29.6    74   1.0  -99
09/23/2018 02:50:00     4.0     210     5.0 1012.80    29.3    25.0    29.6    77   1.0    6
09/23/2018 03:00:00     4.0     210     5.0 1012.90    29.4    25.5    29.6    79 -99.0  -99
09/23/2018 03:10:00     4.0     210     5.0 1012.90    29.4    25.8    29.6    81 -99.0  -99
09/23/2018 03:20:00     4.0     200     5.0 1012.90    29.3    25.5    29.6    80 -99.0  -99
09/23/2018 03:30:00     4.0     240     5.0 1013.10    29.0    25.4    29.6    81 -99.0  -99
09/23/2018 03:40:00     5.0     300     8.0 1013.20    28.0    25.5    29.6    86   0.9  -99
09/23/2018 03:50:00     5.0     310     7.0 1013.20    27.7    25.5    29.6    87   0.9    6
09/23/2018 04:00:00     4.0     310     6.0 1013.20    27.7    25.5   -99.0    87 -99.0  -99
09/23/2018 04:10:00     4.0     310     6.0 1013.00    27.6    25.5    29.6    88 -99.0  -99
09/23/2018 04:20:00     4.0     300     5.0 1013.00    27.7    25.2    29.6    86 -99.0  -99
09/23/2018 04:30:00     5.0     310     6.0 1012.90    27.9    25.4   -99.0    86 -99.0  -99
09/23/2018 04:40:00     5.0     300     9.0 1013.10    27.8    25.5    29.6    87   0.9  -99
09/23/2018 04:50:00     8.0     270    12.0 1013.20    26.5    24.6    29.6    89   0.9    5
09/23/2018 05:00:00     5.0     240     6.0 1013.40    25.2    23.8    29.6    91 -99.0  -99
09/23/2018 05:10:00     5.0     240     7.0 1013.50    25.0    23.9    29.6    93 -99.0  -99
09/23/2018 05:20:00     7.0     260     9.0 1013.20    25.5    24.7    29.5    95 -99.0  -99
09/23/2018 05:30:00     6.0     250    10.0 1013.10    25.2    24.4    29.5    95 -99.0  -99
09/23/2018 05:40:00     2.0     230     4.0 1013.00    25.0    24.2    29.5    95 -99.0  -99
09/23/2018 05:50:00   -99.0     -99     1.0 1012.70    25.0    24.2    29.5    95   0.8    5
09/23/2018 06:00:00     1.0      90     2.0 1012.80    25.2    24.2    29.5    94 -99.0  -99
09/23/2018 06:10:00     2.0      80     2.0 1012.70    25.4    24.1    29.5    92 -99.0  -99
09/23/2018 06:20:00     1.0      80     2.0 1012.60    25.6    24.2    29.5    92 -99.0  -99
09/23/2018 06:30:00     2.0     110     2.0 1012.60    25.9    24.4    29.5    91 -99.0  -99
09/23/2018 06:40:00     2.0     170     3.0 1012.60    26.2    24.4    29.4    89   0.8  -99
09/23/2018 06:50:00     4.0     150     5.0 1012.40    26.7    24.9    29.4    89   0.8    6
09/23/2018 07:00:00     3.0     170     5.0 1012.50    26.8    25.1    29.3    90 -99.0  -99
09/23/2018 07:10:00     4.0     180     6.0 1012.40    27.1    25.3    29.4    89 -99.0  -99
09/23/2018 07:20:00     6.0     150     8.0 1012.40    26.5    24.6    29.3    89 -99.0  -99
09/23/2018 07:30:00     7.0     160    10.0 1012.30    26.5    25.0    29.3    91 -99.0  -99
09/23/2018 07:40:00     8.0     170    10.0 1012.20    26.6    25.4    29.3    93   0.8  -99
09/23/2018 07:50:00     9.0     170    13.0 1012.20    26.2    25.3    29.3    94   0.8    6
09/23/2018 08:00:00    11.0     190    15.0 1012.70    25.9    25.2    29.3    95 -99.0  -99
09/23/2018 08:10:00     9.0     200    14.0 1012.90    24.9    24.3    29.3    96 -99.0  -99
09/23/2018 08:20:00     6.0     220     8.0 1012.50    24.1    23.3    29.2    95 -99.0  -99
09/23/2018 08:30:00     5.0     210     7.0 1012.10    25.0    24.4    29.2    96 -99.0  -99
09/23/2018 08:40:00     7.0     210     9.0 1012.10    25.9    25.2    29.2    95 -99.0  -99
09/23/2018 08:50:00     6.0     250     7.0 1012.00    26.6    25.2    29.2    92   0.8    6
09/23/2018 09:00:00     5.0     260     6.0 1011.80    26.9    24.7    29.1    87 -99.0  -99
09/23/2018 09:10:00     6.0     270     8.0 1011.60    27.2    24.8   -99.0    86 -99.0  -99
09/23/2018 09:20:00     6.0     290     8.0 1011.70    27.3    25.0    29.2    87 -99.0  -99
09/23/2018 09:30:00     6.0     310     8.0 1011.80    27.4    24.9    29.2    86 -99.0  -99
09/23/2018 09:40:00     7.0     320     9.0 1011.70    27.4    24.6    29.1    84 -99.0  -99
09/23/2018 09:50:00     7.0     330     9.0 1011.70    27.3    24.5    29.1    84   0.8    5
09/23/2018 10:00:00     6.0     330     8.0 1011.60    27.2    24.5   -99.0    85 -99.0  -99
09/23/2018 10:10:00     7.0     330     9.0 1011.50    27.2    24.4    29.1    84 -99.0  -99
09/23/2018 10:20:00     7.0     330     8.0 1011.60    27.2    24.3    29.1    84 -99.0  -99
09/23/2018 10:30:00     7.0     330     8.0 1011.70    27.2    24.4    29.1    84 -99.0  -99
09/23/2018 10:40:00     6.0     340     8.0 1011.70    27.1    24.3    29.1    84 -99.0  -99
09/23/2018 10:50:00     7.0     330     8.0 1011.60    27.1    24.1   -99.0    83   0.8    6
09/23/2018 11:00:00     6.0     330     9.0 1011.60    27.1    23.9    29.1    82 -99.0  -99
09/23/2018 11:10:00     6.0     340     7.0 1011.80    27.2    24.0    29.1    82 -99.0  -99
09/23/2018 11:20:00     5.0     330     7.0 1011.90    27.2    23.8    29.1    81 -99.0  -99
09/23/2018 11:30:00     5.0     340     7.0 1012.10    27.2    23.8    29.1    81 -99.0  -99
09/23/2018 11:40:00     5.0     320     6.0 1012.20    27.2    23.8    29.1    81   0.7  -99
09/23/2018 11:50:00     5.0     330     6.0 1012.20    27.1    23.7    29.1    81   0.7    6
09/23/2018 12:00:00     5.0     330     6.0 1012.30    27.1    23.9   -99.0    82 -99.0  -99
09/23/2018 12:10:00     5.0     320     6.0 1012.50    27.0    23.7    29.1    82 -99.0  -99
09/23/2018 12:20:00     4.0     330     5.0 1012.60    27.0    23.7    29.1    82 -99.0  -99
09/23/2018 12:30:00     4.0     330     5.0 1012.50    27.0    23.6    29.1    81 -99.0  -99
09/23/2018 12:40:00     4.0     330     5.0 1012.50    27.0    23.4    29.1    80 -99.0  -99
09/23/2018 12:50:00     4.0     340     6.0 1012.70    27.0    23.5    29.1    81   0.7    6
09/23/2018 13:00:00     5.0     350     6.0 1012.60    27.0    23.4    29.0    80 -99.0  -99
09/23/2018 13:10:00     5.0     340     6.0 1012.70    27.0    23.4    29.1    80 -99.0  -99
09/23/2018 13:20:00     5.0     340     7.0 1012.80    26.9    23.5    29.0    81 -99.0  -99
09/23/2018 13:30:00     4.0     350     5.0 1012.90    27.0    23.5    29.1    81 -99.0  -99
09/23/2018 13:40:00     4.0     350     6.0 1013.00    26.9    23.5    29.0    81 -99.0  -99
09/23/2018 13:50:00     4.0     350     6.0 1013.00    26.9    23.5    29.0    81   0.6    6
09/23/2018 14:00:00     4.0     350     5.0 1013.20    26.9    23.5    29.0    81 -99.0  -99
09/23/2018 14:10:00     3.0     350     5.0 1013.20    26.9    23.3    29.0    80 -99.0  -99
09/23/2018 14:20:00     4.0     350     5.0 1013.30    27.0    23.3    29.0    80 -99.0  -99
09/23/2018 14:30:00     4.0     340     5.0 1013.40    27.0    23.0    29.0    78 -99.0  -99
09/23/2018 14:40:00     4.0     340     5.0 1013.60    27.0    22.8    29.0    77 -99.0  -99
09/23/2018 14:50:00     4.0     330     5.0 1013.70    27.1    22.8    29.0    77   0.7    6
09/23/2018 15:00:00     4.0     330     5.0 1013.80    27.1    22.8   -99.0    77 -99.0  -99
09/23/2018 15:10:00     4.0     330     6.0 1014.00    27.0    22.8    29.0    77 -99.0  -99
09/23/2018 15:20:00     4.0     330     5.0 1014.20    27.0    22.9    29.0    78 -99.0  -99
09/23/2018 15:30:00     3.0     340     4.0 1014.30    27.0    22.7    29.0    77 -99.0  -99
09/23/2018 15:40:00     3.0     330     4.0 1014.50    27.0    22.7    29.0    77 -99.0  -99
09/23/2018 15:50:00     2.0     330     3.0 1014.50    27.0    22.5    29.0    76   0.6    6
09/23/2018 16:00:00     2.0     330     4.0 1014.50    27.1    22.6    29.0    76 -99.0  -99
09/23/2018 16:10:00     2.0     340     4.0 1014.40    27.1    22.5    29.0    76 -99.0  -99
09/23/2018 16:20:00     3.0     340     4.0 1014.30    27.2    22.7    29.1    76 -99.0  -99
09/23/2018 16:30:00     3.0     330     4.0 1014.30    27.1    22.6   -99.0    76 -99.0  -99
09/23/2018 16:40:00     3.0     320     4.0 1014.30    27.1    22.5    29.1    76 -99.0  -99
09/23/2018 16:50:00     3.0     310     4.0 1014.30    27.1    22.3    29.1    75   0.6    4
09/23/2018 17:00:00     3.0     310     4.0 1014.30    27.1    22.2    29.1    74 -99.0  -99
09/23/2018 17:10:00     3.0     310     4.0 1014.20    27.1    22.3    29.1    75 -99.0  -99
09/23/2018 17:20:00     3.0     320     5.0 1014.10    27.0    22.2    29.2    75 -99.0  -99